Time;durP1;ratioP1;P1;durP2;ratioP2;P2;SDS_P1;SDS_P2;PMS_P1;PMS_P2;Temp;Humidity;BMP_temperature;BMP_pressure;BME280_temperature;BME280_humidity;BME280_pressure;Samples;Min_cycle;Max_cycle;Signal;HPM_P1;HPM_P2
2022/05/02 00:01:29;;;;;;;14.00;8.45;;;10.10;59.90;;;;;;9176493;19;20372;-71
2022/05/02 00:04:43;;;;;;;14.65;8.30;;;10.10;59.80;;;;;;9177922;19;20495;-73
2022/05/02 00:07:51;;;;;;;17.50;9.15;;;10.10;59.80;;;;;;9178765;19;20019;-70
2022/05/02 00:11:05;;;;;;;15.80;8.65;;;10.00;59.90;;;;;;9177695;19;20010;-72
2022/05/02 00:14:10;;;;;;;14.48;9.40;;;10.00;59.90;;;;;;9176087;19;20379;-73
2022/05/02 00:17:15;;;;;;;12.32;8.00;;;10.00;60.00;;;;;;9174930;19;20052;-70
2022/05/02 00:20:27;;;;;;;12.20;7.80;;;9.90;59.90;;;;;;9177400;19;20020;-73
2022/05/02 00:23:35;;;;;;;13.52;8.25;;;9.90;60.10;;;;;;9177074;19;20078;-74
2022/05/02 00:26:43;;;;;;;17.23;7.78;;;9.90;60.80;;;;;;9176738;19;20014;-73
2022/05/02 00:29:52;;;;;;;13.13;7.95;;;9.90;60.20;;;;;;9175753;19;20015;-73
2022/05/02 00:32:59;;;;;;;12.02;7.63;;;9.90;60.20;;;;;;9174242;19;20015;-72
2022/05/02 00:36:06;;;;;;;13.75;7.82;;;9.90;60.30;;;;;;9174405;19;20026;-71
2022/05/02 00:39:16;;;;;;;14.13;7.88;;;9.80;60.40;;;;;;9174432;19;20059;-71
2022/05/02 00:42:21;;;;;;;14.25;6.30;;;9.80;60.50;;;;;;9174953;19;20039;-73
2022/05/02 00:45:27;;;;;;;17.35;8.68;;;9.80;60.50;;;;;;9175005;19;20349;-72
2022/05/02 00:48:32;;;;;;;14.05;8.20;;;9.80;60.60;;;;;;9176477;19;20018;-71
2022/05/02 00:51:38;;;;;;;11.63;7.68;;;9.70;60.60;;;;;;9174322;19;20407;-71
2022/05/02 00:54:49;;;;;;;12.40;7.63;;;9.70;60.70;;;;;;9173510;19;20942;-68
2022/05/02 00:57:55;;;;;;;12.90;7.68;;;9.80;60.90;;;;;;9173025;19;20014;-71
2022/05/02 01:01:01;;;;;;;14.93;7.28;;;9.70;60.90;;;;;;9171771;19;20023;-72
2022/05/02 01:04:11;;;;;;;15.68;8.57;;;9.70;61.00;;;;;;9174729;19;20021;-71
2022/05/02 01:07:19;;;;;;;11.23;7.65;;;9.70;61.00;;;;;;9174492;19;20025;-73
2022/05/02 01:10:30;;;;;;;13.77;8.15;;;9.70;61.20;;;;;;9176533;19;20020;-73
2022/05/02 01:13:36;;;;;;;17.73;8.00;;;9.70;61.20;;;;;;9177027;19;20345;-72
2022/05/02 01:16:47;;;;;;;16.73;7.97;;;9.70;61.30;;;;;;9174400;19;20490;-72
2022/05/02 01:19:52;;;;;;;16.75;9.13;;;9.70;61.30;;;;;;9174934;19;20417;-73
2022/05/02 01:23:00;;;;;;;13.50;8.32;;;9.70;61.30;;;;;;9174873;19;20019;-71
2022/05/02 01:26:11;;;;;;;16.25;8.93;;;9.70;61.50;;;;;;9176155;19;20025;-73
2022/05/02 01:29:19;;;;;;;12.68;8.25;;;9.70;61.60;;;;;;9175742;19;20014;-73
2022/05/02 01:32:26;;;;;;;18.92;8.30;;;9.70;61.50;;;;;;9174525;19;20018;-73
2022/05/02 01:35:31;;;;;;;16.83;8.25;;;9.70;61.50;;;;;;9174205;19;20357;-73
2022/05/02 01:38:40;;;;;;;16.80;8.93;;;9.70;61.60;;;;;;9174413;19;20038;-71
2022/05/02 01:41:49;;;;;;;12.30;8.15;;;9.80;61.90;;;;;;9174505;19;20491;-71
2022/05/02 01:44:54;;;;;;;15.95;8.68;;;9.70;61.80;;;;;;9176442;19;20483;-73
2022/05/02 01:48:01;;;;;;;12.95;7.95;;;9.70;61.80;;;;;;9181803;19;20045;-73
2022/05/02 01:51:09;;;;;;;12.27;8.02;;;9.80;61.90;;;;;;9184497;19;20022;-75
2022/05/02 01:54:17;;;;;;;12.57;8.15;;;9.70;61.90;;;;;;9184424;19;20025;-69
2022/05/02 01:57:22;;;;;;;13.18;8.05;;;9.70;62.00;;;;;;9178443;19;20018;-71
2022/05/02 02:00:29;;;;;;;17.65;8.40;;;9.70;62.00;;;;;;9179012;19;20022;-71
2022/05/02 02:03:35;;;;;;;11.60;8.00;;;9.70;62.10;;;;;;9179490;19;20397;-75
2022/05/02 02:06:38;;;;;;;16.15;7.60;;;9.80;62.10;;;;;;9183247;19;20089;-71
2022/05/02 02:09:49;;;;;;;12.35;8.65;;;9.70;62.10;;;;;;9178688;19;20022;-73
2022/05/02 02:12:57;;;;;;;21.70;8.48;;;9.80;62.30;;;;;;9184447;19;20491;-70
2022/05/02 02:16:06;;;;;;;11.95;8.05;;;9.80;62.30;;;;;;9181810;19;20026;-73
2022/05/02 02:19:12;;;;;;;14.27;7.80;;;9.80;62.40;;;;;;9178660;19;20015;-73
2022/05/02 02:22:22;;;;;;;19.80;8.00;;;9.80;62.40;;;;;;9180382;19;20018;-72
2022/05/02 02:25:30;;;;;;;15.20;8.75;;;9.80;62.40;;;;;;9179429;19;20030;-73
2022/05/02 02:28:35;;;;;;;16.60;9.13;;;9.80;62.50;;;;;;9180038;19;20023;-71
2022/05/02 02:31:40;;;;;;;12.48;7.90;;;9.80;62.60;;;;;;9179683;19;20022;-72
2022/05/02 02:34:50;;;;;;;12.52;8.15;;;9.80;62.60;;;;;;9181071;19;20015;-71
2022/05/02 02:37:55;;;;;;;13.93;8.07;;;9.80;62.70;;;;;;9182397;19;20014;-70
2022/05/02 02:41:05;;;;;;;17.10;8.82;;;9.70;62.60;;;;;;9182685;19;20360;-71
2022/05/02 02:44:10;;;;;;;14.27;7.90;;;9.80;62.70;;;;;;9180245;19;20020;-73
2022/05/02 02:47:15;;;;;;;14.77;8.60;;;9.80;62.70;;;;;;9181826;19;20429;-73
2022/05/02 02:50:20;;;;;;;18.40;9.48;;;9.80;62.70;;;;;;9180584;19;20018;-73
2022/05/02 02:53:31;;;;;;;11.02;7.93;;;9.80;62.80;;;;;;9179582;19;20031;-71
2022/05/02 02:56:41;;;;;;;15.07;8.77;;;9.80;62.80;;;;;;9175379;19;20086;-70
2022/05/02 02:59:46;;;;;;;12.25;8.55;;;9.80;62.90;;;;;;9177279;19;20375;-72
2022/05/02 03:03:00;;;;;;;16.25;8.45;;;9.80;62.90;;;;;;9180766;19;20018;-73
2022/05/02 03:06:05;;;;;;;14.18;8.90;;;9.70;62.80;;;;;;9178384;19;20506;-71
2022/05/02 03:09:14;;;;;;;16.98;7.90;;;9.70;62.80;;;;;;9179356;19;20042;-72
2022/05/02 03:12:25;;;;;;;13.77;8.40;;;9.70;62.90;;;;;;9180881;19;20010;-71
2022/05/02 03:15:30;;;;;;;17.02;9.23;;;9.70;63.00;;;;;;9180593;19;20023;-72
2022/05/02 03:18:37;;;;;;;11.98;7.63;;;9.70;62.90;;;;;;9180321;19;20495;-74
2022/05/02 03:21:42;;;;;;;14.57;7.90;;;9.70;63.00;;;;;;9180961;19;20018;-74
2022/05/02 03:24:47;;;;;;;15.18;8.52;;;9.70;63.00;;;;;;9180199;19;20033;-69
2022/05/02 03:27:55;;;;;;;14.02;7.88;;;9.60;63.00;;;;;;9180480;19;20022;-71
2022/05/02 03:31:01;;;;;;;13.70;8.77;;;9.60;63.10;;;;;;9180456;19;20018;-71
2022/05/02 03:34:09;;;;;;;15.05;8.73;;;9.60;63.10;;;;;;9178564;19;20509;-71
2022/05/02 03:37:16;;;;;;;19.02;8.63;;;9.60;63.10;;;;;;9180705;19;20025;-72
2022/05/02 03:40:21;;;;;;;16.80;9.00;;;9.60;63.10;;;;;;9176672;19;20014;-71
2022/05/02 03:43:29;;;;;;;15.25;9.13;;;9.60;63.20;;;;;;9179077;19;20011;-74
2022/05/02 03:46:37;;;;;;;15.63;9.05;;;9.50;63.30;;;;;;9179166;19;20030;-72
2022/05/02 03:49:43;;;;;;;18.40;8.52;;;9.50;63.90;;;;;;9178169;19;20019;-72
2022/05/02 03:52:52;;;;;;;12.52;9.00;;;9.50;63.30;;;;;;9179639;19;20014;-71
2022/05/02 03:55:57;;;;;;;12.70;8.38;;;9.50;63.30;;;;;;9171723;19;20041;-70
2022/05/02 03:59:05;;;;;;;12.93;8.52;;;9.40;63.30;;;;;;9178954;19;20022;-71
2022/05/02 04:02:12;;;;;;;12.65;8.10;;;9.40;63.40;;;;;;9179844;19;20352;-73
2022/05/02 04:05:17;;;;;;;12.65;8.70;;;9.30;63.30;;;;;;9176747;19;20011;-70
2022/05/02 04:08:28;;;;;;;17.70;8.88;;;9.30;63.40;;;;;;9175470;19;20018;-70
2022/05/02 04:11:33;;;;;;;14.50;7.95;;;9.30;63.40;;;;;;9177899;19;20080;-72
2022/05/02 04:14:41;;;;;;;16.88;9.55;;;9.30;63.60;;;;;;9177365;19;20052;-71
2022/05/02 04:17:47;;;;;;;20.13;9.07;;;9.30;63.60;;;;;;9178651;19;20018;-73
2022/05/02 04:20:52;;;;;;;17.20;10.25;;;9.30;63.60;;;;;;9176862;19;20018;-71
2022/05/02 04:23:59;;;;;;;17.23;9.02;;;9.20;63.60;;;;;;9178346;19;20077;-72
2022/05/02 04:27:05;;;;;;;16.77;8.85;;;9.20;63.70;;;;;;9179182;19;20090;-72
2022/05/02 04:30:15;;;;;;;17.23;9.40;;;9.20;64.40;;;;;;9176581;19;20041;-71
2022/05/02 04:33:20;;;;;;;16.17;8.80;;;9.20;63.90;;;;;;9177522;19;20018;-72
2022/05/02 04:36:25;;;;;;;11.88;8.13;;;9.20;63.90;;;;;;9179910;19;20668;-72
2022/05/02 04:39:30;;;;;;;16.05;8.25;;;9.20;63.90;;;;;;9179942;19;20030;-73
2022/05/02 04:42:35;;;;;;;11.52;8.00;;;9.20;64.00;;;;;;9177016;19;20399;-72
2022/05/02 04:45:43;;;;;;;16.45;9.20;;;9.20;64.10;;;;;;9179155;19;20037;-74
2022/05/02 04:48:48;;;;;;;11.02;7.85;;;9.20;64.20;;;;;;9178244;19;20018;-70
2022/05/02 04:51:57;;;;;;;14.73;8.98;;;9.20;64.10;;;;;;9176522;19;20018;-72
2022/05/02 04:55:03;;;;;;;15.20;9.52;;;9.20;64.20;;;;;;9175769;19;20025;-73
2022/05/02 04:58:11;;;;;;;16.80;10.68;;;9.20;64.30;;;;;;9176547;19;20018;-71
2022/05/02 05:01:20;;;;;;;15.35;9.98;;;9.20;64.30;;;;;;9176224;19;20046;-71
2022/05/02 05:04:31;;;;;;;17.25;9.70;;;9.20;64.40;;;;;;9176763;19;20019;-72
2022/05/02 05:07:38;;;;;;;15.23;9.52;;;9.20;64.40;;;;;;9175654;19;20105;-70
2022/05/02 05:10:54;;;;;;;15.90;10.27;;;9.30;64.50;;;;;;9177417;19;20048;-71
2022/05/02 05:17:48;;;;;;;18.95;10.25;;;9.30;64.70;;;;;;9173455;19;20018;-70
2022/05/02 05:21:02;;;;;;;13.90;9.65;;;9.30;64.80;;;;;;9171406;19;20018;-69
2022/05/02 05:24:52;;;;;;;18.00;9.75;;;9.30;64.70;;;;;;9176106;19;20016;-71
2022/05/02 05:28:13;;;;;;;17.52;9.18;;;9.30;64.90;;;;;;9174098;19;20713;-70
2022/05/02 05:31:34;;;;;;;14.13;9.13;;;9.40;65.00;;;;;;9173821;19;20044;-72
2022/05/02 05:34:53;;;;;;;16.30;9.68;;;9.40;65.00;;;;;;9175343;19;20019;-71
2022/05/02 05:38:05;;;;;;;15.35;10.10;;;9.40;65.00;;;;;;9176455;19;20076;-72
2022/05/02 05:41:31;;;;;;;19.23;9.48;;;9.40;65.00;;;;;;9169303;19;20047;-69
2022/05/02 05:44:53;;;;;;;20.58;10.20;;;9.50;65.30;;;;;;9172209;19;20514;-71
2022/05/02 05:48:03;;;;;;;13.45;8.90;;;9.60;65.30;;;;;;9170947;19;20063;-70
2022/05/02 05:51:29;;;;;;;19.88;9.63;;;9.60;65.10;;;;;;9174982;19;20030;-71
2022/05/02 05:54:50;;;;;;;14.65;9.15;;;9.70;65.40;;;;;;9174998;19;20014;-70
2022/05/02 05:58:06;;;;;;;17.80;9.68;;;9.80;65.40;;;;;;9175099;19;20033;-73
2022/05/02 06:01:13;;;;;;;17.35;9.68;;;9.90;65.40;;;;;;9174048;19;20022;-72
2022/05/02 06:04:26;;;;;;;14.07;8.90;;;10.00;65.40;;;;;;9177558;19;20059;-72
2022/05/02 06:07:36;;;;;;;13.93;8.57;;;10.00;65.40;;;;;;9170918;19;20007;-71
2022/05/02 06:10:45;;;;;;;21.10;8.85;;;10.20;65.50;;;;;;9168196;19;20050;-69
2022/05/02 06:13:52;;;;;;;16.48;9.00;;;10.30;65.50;;;;;;9169834;19;20020;-72
2022/05/02 06:20:38;;;;;;;15.77;8.98;;;10.60;65.60;;;;;;9159722;19;20023;-70
2022/05/02 06:23:52;;;;;;;15.57;9.13;;;10.80;65.60;;;;;;9164619;19;20762;-71
2022/05/02 06:27:15;;;;;;;22.75;8.77;;;10.90;65.60;;;;;;9165950;19;20021;-70
2022/05/02 06:30:22;;;;;;;17.55;9.23;;;11.10;65.70;;;;;;9166563;19;20018;-72
2022/05/02 06:33:31;;;;;;;13.68;8.50;;;11.30;65.40;;;;;;9172945;19;20364;-72
2022/05/02 06:36:47;;;;;;;17.27;9.35;;;11.50;66.10;;;;;;9178164;19;20501;-77
2022/05/02 06:40:06;;;;;;;18.90;9.05;;;11.70;65.40;;;;;;9175741;19;20361;-75
2022/05/02 06:43:19;;;;;;;19.23;8.65;;;11.80;65.40;;;;;;9177527;19;20026;-74
2022/05/02 06:46:31;;;;;;;11.10;7.75;;;12.00;65.90;;;;;;9174819;19;20491;-73
2022/05/02 06:49:37;;;;;;;16.98;8.75;;;12.20;65.20;;;;;;9174541;19;20018;-75
2022/05/02 06:52:55;;;;;;;13.93;9.15;;;12.40;65.00;;;;;;9180020;19;20018;-73
2022/05/02 06:56:11;;;;;;;14.07;8.43;;;12.60;65.00;;;;;;9177965;19;20014;-74
2022/05/02 06:59:34;;;;;;;25.45;8.32;;;12.80;64.80;;;;;;9182781;19;20483;-73
2022/05/02 07:02:58;;;;;;;;;;;13.00;64.60;;;;;;9183246;19;20014;-74
2022/05/02 07:06:11;;;;;;;13.63;7.50;;;13.20;64.40;;;;;;9184456;19;19922;-75
2022/05/02 07:09:24;;;;;;;12.00;7.18;;;13.40;64.40;;;;;;9185205;19;20037;-77
2022/05/02 07:12:42;;;;;;;10.68;6.28;;;13.60;64.20;;;;;;9185166;19;20015;-74
2022/05/02 07:16:01;;;;;;;12.18;6.50;;;13.70;64.00;;;;;;9186327;19;20011;-74
2022/05/02 07:19:24;;;;;;;9.82;6.35;;;14.00;63.80;;;;;;9183542;19;20135;-72
2022/05/02 07:22:37;;;;;;;12.65;7.10;;;14.20;63.70;;;;;;9181417;19;20519;-74
2022/05/02 07:25:50;;;;;;;14.45;6.40;;;14.40;63.50;;;;;;9183896;19;20048;-75
2022/05/02 07:29:02;;;;;;;11.30;5.82;;;14.60;63.40;;;;;;9184288;19;20041;-74
2022/05/02 07:32:15;;;;;;;12.48;6.65;;;14.70;63.00;;;;;;9186181;19;20021;-73
2022/05/02 07:35:21;;;;;;;10.77;6.53;;;14.90;62.80;;;;;;9183253;19;20014;-75
2022/05/02 07:38:31;;;;;;;10.13;6.28;;;15.00;62.70;;;;;;9182792;19;20538;-73
2022/05/02 07:41:53;;;;;;;17.50;6.72;;;15.20;62.50;;;;;;9181472;19;20018;-74
2022/05/02 07:45:07;;;;;;;9.77;5.93;;;15.40;62.40;;;;;;9181319;19;20018;-73
2022/05/02 07:48:19;;;;;;;15.30;7.20;;;15.50;62.10;;;;;;9182314;19;20077;-73
2022/05/02 07:51:25;;;;;;;11.30;6.63;;;15.70;61.90;;;;;;9180679;19;20086;-74
2022/05/02 07:54:32;;;;;;;8.77;5.43;;;15.90;61.80;;;;;;9177671;19;20027;-74
2022/05/02 07:57:39;;;;;;;11.43;6.18;;;16.10;61.50;;;;;;9173908;19;20019;-73
2022/05/02 08:00:52;;;;;;;22.00;8.07;;;16.20;61.20;;;;;;9175579;19;20022;-72
2022/05/02 08:03:59;;;;;;;13.27;5.95;;;16.40;60.80;;;;;;9175326;19;20011;-74
2022/05/02 08:07:13;;;;;;;10.77;6.40;;;16.60;60.60;;;;;;9175126;19;20019;-75
2022/05/02 08:10:55;;;;;;;12.63;6.53;;;16.70;60.00;;;;;;9175741;19;20011;-73
2022/05/02 08:14:10;;;;;;;13.95;5.82;;;16.90;59.60;;;;;;9174948;19;20494;-75
2022/05/02 08:17:41;;;;;;;10.45;6.07;;;17.10;59.40;;;;;;9180450;19;20003;-71
2022/05/02 08:20:51;;;;;;;9.40;5.80;;;17.30;59.10;;;;;;9177031;19;20030;-72
2022/05/02 08:27:44;;;;;;;13.05;6.05;;;17.60;58.50;;;;;;9178545;19;20026;-72
2022/05/02 08:31:00;;;;;;;16.08;6.43;;;17.70;58.20;;;;;;9177745;19;20014;-73
2022/05/02 08:34:25;;;;;;;9.18;5.07;;;17.90;58.00;;;;;;9178879;19;20023;-72
2022/05/02 08:37:45;;;;;;;13.95;5.45;;;18.00;57.60;;;;;;9175817;19;20015;-72
2022/05/02 08:41:33;;;;;;;8.20;5.10;;;18.20;57.50;;;;;;9178426;19;20011;-71
2022/05/02 08:45:08;;;;;;;9.20;5.95;;;18.30;57.10;;;;;;9174808;19;20014;-72
2022/05/02 08:48:30;;;;;;;;;;;18.50;56.80;;;;;;9178705;19;20040;-72
2022/05/02 08:52:15;;;;;;;12.05;6.40;;;18.60;57.60;;;;;;9173250;19;19944;-71
2022/05/02 08:55:49;;;;;;;13.70;5.88;;;18.80;56.80;;;;;;9174113;19;20043;-73
2022/05/02 08:59:30;;;;;;;12.43;6.65;;;19.00;56.50;;;;;;9172637;19;20478;-69
2022/05/02 09:03:12;;;;;;;14.67;6.27;;;19.10;56.20;;;;;;9174284;19;20022;-74
2022/05/02 09:06:56;;;;;;;8.23;5.70;;;19.30;56.00;;;;;;9174050;19;20010;-75
2022/05/02 09:10:13;;;;;;;13.18;6.40;;;19.40;55.80;;;;;;9172449;19;20451;-72
2022/05/02 09:13:39;;;;;;;10.98;6.32;;;19.60;55.70;;;;;;9174334;19;20086;-73
2022/05/02 09:17:16;;;;;;;13.00;6.53;;;19.70;55.20;;;;;;9176460;19;20024;-75
2022/05/02 09:20:57;;;;;;;14.18;7.03;;;19.80;54.90;;;;;;9179063;19;20018;-74
2022/05/02 09:24:41;;;;;;;10.32;6.63;;;19.90;54.70;;;;;;9174572;19;20035;-71
2022/05/02 09:27:57;;;;;;;12.30;6.28;;;20.00;54.50;;;;;;9174561;19;20071;-75
2022/05/02 09:31:22;;;;;;;11.30;7.07;;;20.10;54.40;;;;;;9178145;19;20014;-75
2022/05/02 09:34:37;;;;;;;10.90;6.82;;;20.20;54.10;;;;;;9176320;19;20362;-71
2022/05/02 09:38:06;;;;;;;15.15;7.07;;;20.30;53.90;;;;;;9177700;19;20010;-69
2022/05/02 09:41:21;;;;;;;11.00;7.20;;;20.40;53.80;;;;;;9177013;19;20018;-71
2022/05/02 09:52:10;;;;;;;10.57;6.13;;;20.70;53.20;;;;;;9178036;19;20086;-75
2022/05/02 09:58:46;;;;;;;10.02;7.30;;;21.00;53.00;;;;;;9180524;19;20057;-72
2022/05/02 10:02:17;;;;;;;12.23;7.38;;;21.10;52.80;;;;;;9178892;19;20011;-76
2022/05/02 10:05:32;;;;;;;15.00;7.03;;;21.20;52.50;;;;;;9177084;19;20021;-75
2022/05/02 10:08:55;;;;;;;16.50;6.20;;;21.30;52.40;;;;;;9185485;19;20041;-73
2022/05/02 10:12:14;;;;;;;11.70;8.13;;;21.40;52.00;;;;;;9187550;19;20007;-74
2022/05/02 10:15:37;;;;;;;12.25;6.50;;;21.50;51.80;;;;;;9188511;19;20006;-74
2022/05/02 10:18:58;;;;;;;9.55;6.45;;;21.60;51.60;;;;;;9181818;19;20043;-72
2022/05/02 10:22:25;;;;;;;11.57;7.68;;;21.70;51.50;;;;;;9179558;19;20741;-71
2022/05/02 10:25:41;;;;;;;9.50;6.68;;;21.80;51.30;;;;;;9175688;19;20018;-72
2022/05/02 10:29:31;;;;;;;9.63;6.63;;;21.80;51.10;;;;;;9173091;19;20045;-71
2022/05/02 10:32:53;;;;;;;14.18;7.32;;;21.90;50.90;;;;;;9174598;19;20014;-71
2022/05/02 10:36:02;;;;;;;9.90;6.63;;;22.00;50.80;;;;;;9174340;19;20078;-70
2022/05/02 10:39:18;;;;;;;12.82;7.18;;;22.10;50.90;;;;;;9175292;19;20021;-72
2022/05/02 10:42:31;;;;;;;13.50;6.85;;;22.20;50.40;;;;;;9177060;19;20022;-71
2022/05/02 10:45:43;;;;;;;15.15;6.25;;;22.20;50.30;;;;;;9178832;19;20017;-73
2022/05/02 10:48:54;;;;;;;11.40;6.53;;;22.20;50.20;;;;;;9181847;19;20010;-72
2022/05/02 10:55:31;;;;;;;13.15;6.55;;;22.20;49.80;;;;;;9176313;19;20025;-72
2022/05/02 10:58:43;;;;;;;10.27;7.25;;;22.20;49.90;;;;;;9179928;19;20022;-71
2022/05/02 11:02:23;;;;;;;12.23;6.72;;;22.10;49.60;;;;;;9178110;19;20400;-70
2022/05/02 11:05:34;;;;;;;14.05;6.60;;;22.00;49.40;;;;;;9177833;19;20026;-71
2022/05/02 11:08:50;;;;;;;15.50;6.68;;;22.00;49.90;;;;;;9178773;19;20022;-71
2022/05/02 11:11:55;;;;;;;13.27;6.90;;;22.00;49.60;;;;;;9178787;19;20022;-70
2022/05/02 11:15:07;;;;;;;20.33;8.15;;;22.00;49.90;;;;;;9180459;19;20021;-72
2022/05/02 11:22:14;;;;;;;11.20;6.40;;;22.00;49.60;;;;;;9179006;19;20105;-74
2022/05/02 11:25:27;;;;;;;11.70;6.38;;;22.10;49.30;;;;;;9177824;19;20026;-72
2022/05/02 11:28:52;;;;;;;11.77;7.03;;;22.10;49.40;;;;;;9179050;19;20065;-74
2022/05/02 11:32:07;;;;;;;10.95;7.00;;;22.10;49.20;;;;;;9179140;19;20015;-73
2022/05/02 11:35:15;;;;;;;16.35;7.47;;;22.10;49.30;;;;;;9179882;19;20010;-74
2022/05/02 11:38:38;;;;;;;10.73;6.75;;;22.20;49.20;;;;;;9180848;19;20015;-71
2022/05/02 11:41:47;;;;;;;11.77;6.88;;;22.20;48.80;;;;;;9185959;19;20015;-72
2022/05/02 11:45:10;;;;;;;12.98;6.93;;;22.30;48.90;;;;;;9182445;19;20476;-71
2022/05/02 11:48:53;;;;;;;9.52;6.70;;;22.40;48.60;;;;;;9183809;19;20025;-70
2022/05/02 11:52:00;;;;;;;11.27;6.93;;;22.40;48.40;;;;;;9185724;19;20788;-71
2022/05/02 11:55:07;;;;;;;14.10;8.45;;;22.50;48.70;;;;;;9177728;19;20029;-71
2022/05/02 11:58:27;;;;;;;9.55;6.13;;;22.50;48.50;;;;;;9182971;19;20015;-70
2022/05/02 12:01:37;;;;;;;13.02;6.55;;;22.50;48.20;;;;;;9184371;19;20010;-71
2022/05/02 12:04:46;;;;;;;10.55;6.90;;;22.60;48.40;;;;;;9170882;19;20025;-71
2022/05/02 12:07:53;;;;;;;10.30;6.53;;;22.60;48.20;;;;;;9169855;19;20047;-71
2022/05/02 12:11:09;;;;;;;11.07;6.13;;;22.70;48.10;;;;;;9170730;19;20037;-70
2022/05/02 12:14:24;;;;;;;13.93;6.55;;;22.70;47.70;;;;;;9172797;19;20030;-71
2022/05/02 12:17:29;;;;;;;12.65;7.10;;;22.80;47.50;;;;;;9173979;19;20039;-70
2022/05/02 12:20:36;;;;;;;11.10;7.43;;;22.80;47.80;;;;;;9172475;19;20026;-71
2022/05/02 12:23:44;;;;;;;9.73;6.43;;;22.70;47.60;;;;;;9170241;19;20022;-71
2022/05/02 12:26:52;;;;;;;10.00;6.55;;;22.70;47.50;;;;;;9173851;19;20006;-71
2022/05/02 12:30:02;;;;;;;10.45;6.57;;;22.80;47.60;;;;;;9169907;19;20361;-70
2022/05/02 12:33:08;;;;;;;13.32;6.82;;;22.80;47.50;;;;;;9172325;19;20017;-72
2022/05/02 12:36:17;;;;;;;7.32;5.55;;;22.80;47.60;;;;;;9170649;19;20029;-71
2022/05/02 12:39:27;;;;;;;11.05;7.05;;;22.90;47.40;;;;;;9171551;19;20361;-72
2022/05/02 12:42:47;;;;;;;12.57;6.65;;;22.90;47.10;;;;;;9170920;19;20863;-71
2022/05/02 12:45:56;;;;;;;12.10;6.25;;;22.90;47.00;;;;;;9171826;19;20574;-71
2022/05/02 12:49:05;;;;;;;10.98;6.53;;;23.00;46.90;;;;;;9173865;19;20712;-71
2022/05/02 12:52:10;;;;;;;12.27;6.57;;;23.00;46.80;;;;;;9169621;19;20018;-70
2022/05/02 12:55:16;;;;;;;12.05;6.95;;;23.10;46.80;;;;;;9167675;19;20022;-70
2022/05/02 13:01:48;;;;;;;13.07;7.40;;;23.00;46.60;;;;;;9181065;19;20123;-72
2022/05/02 13:04:54;;;;;;;;;;;23.00;46.30;;;;;;9176139;19;20028;-71
2022/05/02 13:08:00;;;;;;;13.48;6.68;;;23.00;47.10;;;;;;9180197;19;19919;-71
2022/05/02 13:11:11;;;;;;;10.00;6.72;;;23.10;46.80;;;;;;9180812;19;20044;-71
2022/05/02 13:14:23;;;;;;;10.10;6.63;;;23.10;46.60;;;;;;9182872;19;20085;-70
2022/05/02 13:17:31;;;;;;;10.70;7.00;;;23.10;46.30;;;;;;9177444;19;20018;-68
2022/05/02 13:20:36;;;;;;;10.77;7.13;;;23.10;46.10;;;;;;9176258;19;20015;-68
2022/05/02 13:23:46;;;;;;;10.82;7.22;;;23.10;46.20;;;;;;9172746;19;20014;-68
2022/05/02 13:27:09;;;;;;;11.05;6.75;;;23.10;46.00;;;;;;9175787;19;20018;-72
2022/05/02 13:30:17;;;;;;;12.73;7.45;;;23.10;45.70;;;;;;9176212;19;20025;-73
2022/05/02 13:33:39;;;;;;;13.00;7.47;;;23.00;45.90;;;;;;9176035;19;20026;-74
2022/05/02 13:36:46;;;;;;;20.08;7.03;;;23.00;45.50;;;;;;9177167;19;20026;-73
2022/05/02 13:39:54;;;;;;;14.90;7.18;;;22.90;45.80;;;;;;9179987;19;20022;-72
2022/05/02 13:43:08;;;;;;;12.35;6.38;;;22.80;45.60;;;;;;9176379;19;20107;-72
2022/05/02 13:46:20;;;;;;;10.77;6.90;;;22.70;45.40;;;;;;9178993;19;20014;-72
2022/05/02 13:50:03;;;;;;;14.60;6.63;;;22.70;45.50;;;;;;9177110;19;20035;-71
2022/05/02 13:53:21;;;;;;;8.60;6.18;;;22.60;45.30;;;;;;9178116;19;20025;-73
2022/05/02 13:56:43;;;;;;;12.35;7.32;;;22.40;45.50;;;;;;9174458;19;20049;-72
2022/05/02 14:00:01;;;;;;;15.15;6.90;;;22.30;45.50;;;;;;9178993;19;20019;-73
2022/05/02 14:03:32;;;;;;;11.60;6.88;;;22.30;45.50;;;;;;9177715;19;20017;-74
2022/05/02 14:06:55;;;;;;;11.13;6.38;;;22.20;45.60;;;;;;9177764;19;20017;-70
2022/05/02 14:10:04;;;;;;;10.70;6.43;;;22.20;45.70;;;;;;9176806;19;20018;-71
2022/05/02 14:13:19;;;;;;;11.57;6.45;;;22.30;45.90;;;;;;9176935;19;20511;-71
2022/05/02 14:16:24;;;;;;;12.35;6.82;;;22.40;45.50;;;;;;9176104;19;20026;-70
2022/05/02 14:19:29;;;;;;;19.20;6.82;;;22.40;45.60;;;;;;9177918;19;20074;-73
2022/05/02 14:22:40;;;;;;;12.43;7.43;;;22.40;45.50;;;;;;9172433;19;20018;-73
2022/05/02 14:25:49;;;;;;;12.30;6.70;;;22.50;45.40;;;;;;9176910;19;20483;-72
2022/05/02 14:29:01;;;;;;;12.82;6.90;;;22.50;45.50;;;;;;9179014;19;20422;-72
2022/05/02 14:32:10;;;;;;;17.50;7.45;;;22.50;45.50;;;;;;9177459;19;20022;-73
2022/05/02 14:35:24;;;;;;;16.23;7.60;;;22.60;45.30;;;;;;9179269;19;20017;-72
2022/05/02 14:38:32;;;;;;;11.45;7.07;;;22.60;45.10;;;;;;9176195;19;20044;-71
2022/05/02 14:41:39;;;;;;;10.52;7.00;;;22.60;45.20;;;;;;9177053;19;20010;-71
2022/05/02 14:44:46;;;;;;;11.13;7.35;;;22.70;45.30;;;;;;9176753;19;20391;-72
2022/05/02 14:47:52;;;;;;;12.38;7.43;;;22.70;45.30;;;;;;9176771;19;20014;-71
2022/05/02 14:51:09;;;;;;;14.10;7.35;;;22.70;45.10;;;;;;9176309;19;20022;-72
2022/05/02 14:54:18;;;;;;;21.92;6.38;;;22.70;44.70;;;;;;9183350;19;20018;-73
2022/05/02 14:57:25;;;;;;;12.48;6.88;;;22.70;44.80;;;;;;9177458;19;20014;-73
2022/05/02 15:00:32;;;;;;;8.80;6.30;;;22.70;44.80;;;;;;9184152;19;20022;-73
2022/05/02 15:03:46;;;;;;;10.10;6.07;;;22.70;44.80;;;;;;9182377;19;20132;-74
2022/05/02 15:06:54;;;;;;;9.98;6.40;;;22.70;44.70;;;;;;9181786;19;20053;-73
2022/05/02 15:10:14;;;;;;;10.90;6.72;;;22.70;44.80;;;;;;9180202;19;20025;-73
2022/05/02 15:13:37;;;;;;;9.48;6.13;;;22.70;44.70;;;;;;9180458;19;20059;-72
2022/05/02 15:16:52;;;;;;;8.15;5.53;;;22.60;44.60;;;;;;9178391;19;20487;-70
2022/05/02 15:20:09;;;;;;;10.30;6.60;;;22.70;44.70;;;;;;9178341;19;20022;-72
2022/05/02 15:23:15;;;;;;;11.00;6.70;;;22.60;44.60;;;;;;9174115;19;20079;-71
2022/05/02 15:26:52;;;;;;;9.90;6.38;;;22.60;44.70;;;;;;9168945;19;20015;-72
2022/05/02 15:36:57;;;;;;;13.48;6.88;;;22.50;44.70;;;;;;9168962;19;20888;-71
2022/05/02 15:40:21;;;;;;;8.32;6.45;;;22.50;44.60;;;;;;9168845;19;20015;-69
2022/05/02 15:43:33;;;;;;;12.20;6.75;;;22.30;44.50;;;;;;9176523;19;20058;-70
2022/05/02 15:46:42;;;;;;;10.95;7.03;;;22.30;44.40;;;;;;9173733;19;20382;-71
2022/05/02 15:49:53;;;;;;;11.23;6.55;;;22.20;44.40;;;;;;9180745;19;20018;-74
2022/05/02 15:53:02;;;;;;;10.70;6.13;;;22.00;44.40;;;;;;9181131;19;20017;-71
2022/05/02 15:56:14;;;;;;;10.43;6.75;;;22.00;44.50;;;;;;9174596;19;20543;-70
2022/05/02 15:59:32;;;;;;;8.73;6.00;;;21.90;44.40;;;;;;9168933;19;20031;-69
2022/05/02 16:02:37;;;;;;;13.05;6.93;;;21.80;44.40;;;;;;9180505;19;20017;-72
2022/05/02 16:05:45;;;;;;;12.52;6.30;;;21.70;44.60;;;;;;9177130;19;20010;-72
2022/05/02 16:12:10;;;;;;;13.38;6.20;;;21.60;44.60;;;;;;9184395;19;20495;-71
2022/05/02 16:15:18;;;;;;;10.95;5.88;;;21.50;44.60;;;;;;9179524;19;20010;-73
2022/05/02 16:18:28;;;;;;;9.95;5.90;;;21.50;44.50;;;;;;9179167;19;20666;-73
2022/05/02 16:21:38;;;;;;;10.82;5.63;;;21.40;44.50;;;;;;9177620;19;20371;-71
2022/05/02 16:24:45;;;;;;;18.05;5.78;;;21.30;44.40;;;;;;9178872;19;20022;-71
2022/05/02 16:27:51;;;;;;;13.95;6.88;;;21.30;44.40;;;;;;9180374;19;20018;-71
2022/05/02 16:31:05;;;;;;;12.82;5.85;;;21.20;44.40;;;;;;9174034;19;20019;-69
2022/05/02 16:34:11;;;;;;;9.88;4.97;;;21.20;44.80;;;;;;9175979;19;20026;-69
2022/05/02 16:37:17;;;;;;;8.38;5.70;;;21.10;44.40;;;;;;9178387;19;20641;-69
2022/05/02 16:40:27;;;;;;;8.00;5.07;;;21.10;44.40;;;;;;9178998;19;20024;-71
2022/05/02 16:43:33;;;;;;;11.23;5.07;;;21.00;44.30;;;;;;9172096;19;20018;-69
2022/05/02 16:46:43;;;;;;;9.45;5.68;;;20.90;44.30;;;;;;9168563;19;20569;-71
2022/05/02 16:49:49;;;;;;;9.70;4.72;;;20.80;44.30;;;;;;9168012;19;20022;-70
2022/05/02 16:52:58;;;;;;;8.63;5.10;;;20.80;44.30;;;;;;9166925;19;20607;-72
2022/05/02 16:56:04;;;;;;;13.18;4.53;;;20.70;44.20;;;;;;9163576;19;20594;-74
2022/05/02 16:59:09;;;;;;;7.50;4.47;;;20.60;44.30;;;;;;9169761;19;20026;-72
2022/05/02 17:02:16;;;;;;;8.50;4.85;;;20.60;44.40;;;;;;9169298;19;20010;-72
2022/05/02 17:05:21;;;;;;;6.40;4.32;;;20.50;44.20;;;;;;9169479;19;20053;-72
2022/05/02 17:08:27;;;;;;;9.90;5.65;;;20.40;44.30;;;;;;9172994;19;20018;-70
2022/05/02 17:11:32;;;;;;;9.93;5.05;;;20.30;44.40;;;;;;9174995;19;20052;-72
2022/05/02 17:14:38;;;;;;;9.27;4.57;;;20.30;44.40;;;;;;9179336;19;20015;-72
2022/05/02 17:17:51;;;;;;;10.93;4.68;;;20.10;44.30;;;;;;9179289;19;20042;-74
2022/05/02 17:20:59;;;;;;;9.20;4.93;;;20.10;44.30;;;;;;9185730;19;20011;-70